createdAt,value
2018-09-17T00:00:01.343Z,1004.07
2018-09-17T00:05:01.896Z,1004.07
2018-09-17T00:10:02.205Z,1004.04
2018-09-17T00:15:01.532Z,1004.08
2018-09-17T00:20:02.092Z,1004.11
2018-09-17T00:25:01.438Z,1004.18
2018-09-17T00:30:01.919Z,1004.24
2018-09-17T00:35:02.569Z,1004.32
2018-09-17T00:40:02.049Z,1004.35
2018-09-17T00:45:01.399Z,1004.31
2018-09-17T00:50:01.886Z,1004.25
2018-09-17T00:55:02.393Z,1004.23
2018-09-17T01:00:01.788Z,1004.33
2018-09-17T01:05:02.240Z,1004.3
2018-09-17T01:10:01.548Z,1004.31
2018-09-17T01:15:01.909Z,1004.31
2018-09-17T01:20:02.366Z,1004.33
2018-09-17T01:25:01.796Z,1004.39
2018-09-17T01:30:02.446Z,1004.54
2018-09-17T01:35:01.912Z,1004.56
2018-09-17T01:40:02.104Z,1004.57
2018-09-17T01:45:01.350Z,1004.55
2018-09-17T01:50:01.868Z,1004.51
2018-09-17T01:55:02.329Z,1004.65
2018-09-17T02:00:01.784Z,1004.56
2018-09-17T02:05:02.262Z,1004.54
2018-09-17T02:10:01.797Z,1004.56
2018-09-17T02:15:02.222Z,1004.62
2018-09-17T02:20:02.301Z,1004.45
2018-09-17T02:25:01.797Z,1004.36
2018-09-17T02:30:02.210Z,1004.32
2018-09-17T02:35:01.679Z,1004.45
2018-09-17T02:40:02.193Z,1004.48
2018-09-17T02:45:01.479Z,1004.4
2018-09-17T02:50:01.845Z,1004.31
2018-09-17T02:55:02.314Z,1004.29
2018-09-17T03:00:01.642Z,1004.27
2018-09-17T03:05:01.983Z,1004.29
2018-09-17T03:10:02.256Z,1004.27
2018-09-17T03:15:01.543Z,1004.32
2018-09-17T03:20:02.022Z,1004.3
2018-09-17T03:25:01.321Z,1004.23
2018-09-17T03:30:01.646Z,1004.32
2018-09-17T03:35:02.160Z,1004.35
2018-09-17T03:40:01.426Z,1004.26
2018-09-17T03:45:01.705Z,1004.33
2018-09-17T03:50:02.165Z,1004.42
2018-09-17T03:55:01.485Z,1004.4
2018-09-17T04:00:01.777Z,1004.52
2018-09-17T04:05:02.333Z,1004.5
2018-09-17T04:10:01.673Z,1004.5
2018-09-17T04:15:02.002Z,1004.45
2018-09-17T04:20:01.329Z,1004.42
2018-09-17T04:25:01.713Z,1004.4
2018-09-17T04:30:02.003Z,1004.43
2018-09-17T04:35:01.452Z,1004.44
2018-09-17T04:40:02.151Z,1004.38
2018-09-17T04:45:01.391Z,1004.41
2018-09-17T04:50:01.832Z,1004.4
2018-09-17T04:55:02.149Z,1004.56
2018-09-17T05:00:01.418Z,1004.66
2018-09-17T05:05:01.915Z,1004.59
2018-09-17T05:10:02.249Z,1004.5
2018-09-17T05:15:01.533Z,1004.53
2018-09-17T05:20:01.963Z,1004.51
2018-09-17T05:25:02.274Z,1004.6
2018-09-17T05:30:01.601Z,1004.48
2018-09-17T05:35:02.278Z,1004.47
2018-09-17T05:40:01.635Z,1004.49
2018-09-17T05:45:01.963Z,1004.54
2018-09-17T05:50:02.462Z,1004.54
2018-09-17T05:55:01.755Z,1004.61
2018-09-17T06:00:02.041Z,1004.48
2018-09-17T06:05:01.398Z,1004.55
2018-09-17T06:10:01.735Z,1004.56
2018-09-17T06:15:02.032Z,1004.6
2018-09-17T06:20:01.374Z,1004.66
2018-09-17T06:25:01.693Z,1004.62
2018-09-17T06:30:02.036Z,1004.58
2018-09-17T06:35:01.366Z,1004.59
2018-09-17T06:40:01.678Z,1004.56
2018-09-17T06:45:02.307Z,1004.63
2018-09-17T06:50:01.774Z,1004.67
2018-09-17T06:55:02.019Z,1004.67
2018-09-17T07:00:01.255Z,1004.77
2018-09-17T07:05:01.695Z,1004.79
2018-09-17T07:10:01.956Z,1004.91
2018-09-17T07:15:02.260Z,1004.9
2018-09-17T07:20:01.638Z,1004.93
2018-09-17T07:25:02.084Z,1004.99
2018-09-17T07:30:01.366Z,1005.06
2018-09-17T07:35:01.799Z,1005.1
2018-09-17T07:40:02.170Z,1005.01
2018-09-17T07:45:01.416Z,1005.07
2018-09-17T07:50:01.818Z,1005.09
2018-09-17T07:55:02.142Z,1005.08
2018-09-17T08:00:01.411Z,1005.06
2018-09-17T08:05:01.844Z,1005.05
2018-09-17T08:10:02.142Z,1005.02
2018-09-17T08:15:01.434Z,1005
2018-09-17T08:20:01.949Z,1004.9
2018-09-17T08:25:02.257Z,1004.88
2018-09-17T08:30:01.518Z,1004.87
2018-09-17T08:35:02.038Z,1004.8
2018-09-17T08:40:01.306Z,1004.77
2018-09-17T08:45:01.545Z,1004.81
2018-09-17T08:50:01.963Z,1004.77
2018-09-17T08:55:02.271Z,1004.86
2018-09-17T09:00:01.621Z,1004.84
2018-09-17T09:05:02.262Z,1004.77
2018-09-17T09:10:01.538Z,1004.79
2018-09-17T09:15:01.849Z,1004.71
2018-09-17T09:20:02.245Z,1004.66
2018-09-17T09:25:01.913Z,1004.54
2018-09-17T09:30:02.302Z,1004.5
2018-09-17T09:35:01.786Z,1004.46
2018-09-17T09:40:02.086Z,1004.46
2018-09-17T09:45:01.319Z,1004.42
2018-09-17T09:50:01.805Z,1004.34
2018-09-17T09:55:02.064Z,1004.3
2018-09-17T10:00:01.338Z,1004.21
2018-09-17T10:05:01.808Z,1004.12
2018-09-17T10:10:02.126Z,1004
2018-09-17T10:15:01.370Z,1003.95
2018-09-17T10:20:01.742Z,1003.99
2018-09-17T10:25:02.221Z,1003.95
2018-09-17T10:30:01.616Z,1003.96
2018-09-17T10:35:02.103Z,1003.89
2018-09-17T10:40:01.351Z,1003.76
2018-09-17T10:45:01.726Z,1003.75
2018-09-17T10:50:02.217Z,1003.65
2018-09-17T10:55:01.496Z,1003.61
2018-09-17T11:00:01.803Z,1003.64
2018-09-17T11:05:02.370Z,1003.54
2018-09-17T11:10:01.657Z,1003.47
2018-09-17T11:15:02.032Z,1003.42
2018-09-17T11:20:01.312Z,1003.43
2018-09-17T11:25:01.711Z,1003.35
2018-09-17T11:30:02.008Z,1003.37
2018-09-17T11:35:01.339Z,1003.31
2018-09-17T11:40:01.608Z,1003.16
2018-09-17T11:45:01.938Z,1003.19
2018-09-17T11:50:02.381Z,1003.04
2018-09-17T11:55:01.664Z,1003.05
2018-09-17T12:00:01.964Z,1003.11
2018-09-17T12:05:01.652Z,1002.99
2018-09-17T12:10:01.954Z,1002.95
2018-09-17T12:15:02.261Z,1002.88
2018-09-17T12:20:01.662Z,1002.82
2018-09-17T12:25:02.117Z,1002.76
2018-09-17T12:30:01.345Z,1002.72
2018-09-17T12:35:01.806Z,1002.78
2018-09-17T12:40:02.050Z,1002.71
2018-09-17T12:45:01.306Z,1002.59
2018-09-17T12:50:01.720Z,1002.54
2018-09-17T12:55:02.082Z,1002.44
2018-09-17T13:00:01.356Z,1002.39
2018-09-17T13:05:01.919Z,1002.33
2018-09-17T13:10:02.751Z,1002.24
2018-09-17T13:15:01.996Z,1002.26
2018-09-17T13:20:01.574Z,1002.23
2018-09-17T13:25:02.410Z,1002.31
2018-09-17T13:30:01.882Z,1002.12
2018-09-17T13:35:02.389Z,1002.12
2018-09-17T13:40:01.747Z,1002.06
2018-09-17T13:45:02.137Z,1002.03
2018-09-17T13:50:01.529Z,1002
2018-09-17T13:55:01.867Z,1001.92
2018-09-17T14:00:02.234Z,1001.85
2018-09-17T14:05:01.709Z,1001.75
2018-09-17T14:10:02.298Z,1001.71
2018-09-17T14:15:01.745Z,1001.7
2018-09-17T14:20:02.306Z,1001.64
2018-09-17T14:25:01.719Z,1001.53
2018-09-17T14:30:02.072Z,1001.47
2018-09-17T14:35:01.438Z,1001.4
2018-09-17T14:40:01.805Z,1001.35
2018-09-17T14:45:02.177Z,1001.27
2018-09-17T14:50:01.548Z,1001.2
2018-09-17T14:55:01.835Z,1001.14
2018-09-17T15:00:02.233Z,1001.16
2018-09-17T15:05:01.670Z,1001.12
2018-09-17T15:10:02.113Z,1001.03
2018-09-17T15:15:01.814Z,1001.02
2018-09-17T15:20:02.579Z,1000.97
2018-09-17T15:25:02.089Z,1000.96
2018-09-17T15:30:01.359Z,1000.92
2018-09-17T15:35:01.848Z,1000.88
2018-09-17T15:40:02.299Z,1000.87
2018-09-17T15:45:01.585Z,1000.85
2018-09-17T15:50:02.323Z,1000.7
2018-09-17T15:55:01.615Z,1000.62
2018-09-17T16:00:01.981Z,1000.61
2018-09-17T16:05:01.280Z,1000.5
2018-09-17T16:10:01.560Z,1000.52
2018-09-17T16:15:01.859Z,1000.5
2018-09-17T16:20:02.641Z,1000.52
2018-09-17T16:25:02.072Z,1000.5
2018-09-17T16:30:01.319Z,1000.5
2018-09-17T16:35:01.826Z,1000.5
2018-09-17T16:40:02.150Z,1000.5
2018-09-17T16:45:01.447Z,1000.47
2018-09-17T16:50:01.792Z,1000.49
2018-09-17T16:55:02.135Z,1000.51
2018-09-17T17:00:01.404Z,1000.54
2018-09-17T17:05:02.406Z,1000.57
2018-09-17T17:10:01.950Z,1000.53
2018-09-17T17:15:02.289Z,1000.55
2018-09-17T17:20:01.648Z,1000.53
2018-09-17T17:25:01.981Z,1000.55
2018-09-17T17:30:02.290Z,1000.5
2018-09-17T17:35:01.766Z,1000.44
2018-09-17T17:40:02.566Z,1000.47
2018-09-17T17:45:02.037Z,1000.45
2018-09-17T17:50:01.365Z,1000.43
2018-09-17T17:55:01.756Z,1000.43
2018-09-17T18:00:02.036Z,1000.47
2018-09-17T18:05:01.335Z,1000.46
2018-09-17T18:10:01.665Z,1000.5
2018-09-17T18:15:02.459Z,1000.46
2018-09-17T18:20:01.955Z,1000.45
2018-09-17T18:25:02.265Z,1000.46
2018-09-17T18:30:01.585Z,1000.45
2018-09-17T18:35:02.307Z,1000.4
2018-09-17T18:40:01.595Z,1000.38
2018-09-17T18:45:02.372Z,1000.39
2018-09-17T18:50:01.898Z,1000.46
2018-09-17T18:55:02.277Z,1000.38
2018-09-17T19:00:01.915Z,1000.4
2018-09-17T19:05:02.421Z,1000.4
2018-09-17T19:10:01.723Z,1000.37
2018-09-17T19:15:02.079Z,1000.39
2018-09-17T19:20:01.549Z,1000.42
2018-09-17T19:25:02.158Z,1000.35
2018-09-17T19:30:01.529Z,1000.36
2018-09-17T19:35:02.312Z,1000.35
2018-09-17T19:40:02.065Z,1000.41
2018-09-17T19:45:01.434Z,1000.37
2018-09-17T19:50:02.388Z,1000.36
2018-09-17T19:55:01.723Z,1000.35
2018-09-17T20:00:02.052Z,1000.35
2018-09-17T20:05:01.429Z,1000.29
2018-09-17T20:10:01.869Z,1000.33
2018-09-17T20:15:01.425Z,1000.36
2018-09-17T20:20:01.897Z,1000.33
2018-09-17T20:25:02.231Z,1000.39
2018-09-17T20:30:01.478Z,1000.35
2018-09-17T20:35:01.941Z,1000.31
2018-09-17T20:40:02.226Z,1000.34
2018-09-17T20:45:01.553Z,1000.35
2018-09-17T20:50:02.503Z,1000.27
2018-09-17T20:55:02.319Z,1000.18
2018-09-17T21:00:01.647Z,1000.19
2018-09-17T21:05:02.219Z,1000.18
2018-09-17T21:10:01.466Z,1000.17
2018-09-17T21:15:01.747Z,1000.16
2018-09-17T21:20:02.270Z,1000.19
2018-09-17T21:25:02.096Z,1000.11
2018-09-17T21:30:01.410Z,1000.09
2018-09-17T21:35:02.063Z,1000.05
2018-09-17T21:40:01.348Z,1000.02
2018-09-17T21:45:01.663Z,1000.02
2018-09-17T21:50:02.129Z,1000.01
2018-09-17T21:55:01.394Z,999.94
2018-09-17T22:00:01.729Z,999.92
2018-09-17T22:05:02.256Z,999.9
2018-09-17T22:10:01.557Z,999.91
2018-09-17T22:15:01.915Z,999.9
2018-09-17T22:20:02.477Z,999.89
2018-09-17T22:25:01.780Z,999.79
2018-09-17T22:30:02.073Z,999.8
2018-09-17T22:35:01.436Z,999.78
2018-09-17T22:40:01.743Z,999.83
2018-09-17T22:45:02.030Z,999.78
2018-09-17T22:50:01.338Z,999.77
2018-09-17T22:55:01.633Z,999.72
2018-09-17T23:00:01.911Z,999.67
2018-09-17T23:05:02.467Z,999.68
2018-09-17T23:10:01.861Z,999.61
2018-09-17T23:15:02.214Z,999.6
2018-09-17T23:20:01.600Z,999.57
2018-09-17T23:25:01.902Z,999.55
2018-09-17T23:30:02.206Z,999.51
2018-09-17T23:35:01.644Z,999.51
2018-09-17T23:40:01.938Z,999.5
2018-09-17T23:45:02.209Z,999.41
2018-09-17T23:50:01.627Z,999.41
2018-09-17T23:55:02.030Z,999.33
